createdAt,value
2023-01-27T00:00:24.972Z,98374.72
2023-01-27T00:02:51.693Z,98371.53
2023-01-27T00:05:18.477Z,98373.75
2023-01-27T00:07:48.166Z,98381.91
2023-01-27T00:10:15.839Z,98394.44
2023-01-27T00:13:02.141Z,98390.38
2023-01-27T00:15:29.340Z,98379.47
2023-01-27T00:17:55.972Z,98378.66
2023-01-27T00:20:41.264Z,98382.44
2023-01-27T00:23:35.849Z,98398.34
2023-01-27T00:26:06.356Z,98385.22
2023-01-27T00:28:36.246Z,98388.97
2023-01-27T00:31:03.176Z,98395.19
2023-01-27T00:33:29.936Z,98380.50
2023-01-27T00:36:04.699Z,98380.31
2023-01-27T00:38:33.720Z,98395.19
2023-01-27T00:41:19.504Z,98380.94
2023-01-27T00:43:50.826Z,98386.84
2023-01-27T00:46:17.918Z,98401.94
2023-01-27T00:48:44.805Z,98389.13
2023-01-27T00:51:12.033Z,98391.06
2023-01-27T00:53:38.745Z,98404.88
2023-01-27T00:56:05.486Z,98395.47
2023-01-27T00:58:32.437Z,98401.84
2023-01-27T01:01:01.044Z,98395.94
2023-01-27T01:03:32.073Z,98405.41
2023-01-27T01:06:03.078Z,98416.09
2023-01-27T01:08:33.429Z,98412.16
2023-01-27T01:11:02.390Z,98423.69
2023-01-27T01:13:29.007Z,98423.66
2023-01-27T01:15:55.913Z,98428.06
2023-01-27T01:18:22.609Z,98426.88
2023-01-27T01:20:49.251Z,98426.25
2023-01-27T01:23:16.063Z,98422.16
2023-01-27T01:25:42.706Z,98421.13
2023-01-27T01:28:09.397Z,98429.00
2023-01-27T01:30:36.972Z,98430.66
2023-01-27T01:33:05.562Z,98437.09
2023-01-27T01:35:32.602Z,98435.19
2023-01-27T01:37:59.284Z,98441.50
2023-01-27T01:40:26.114Z,98439.78
2023-01-27T01:42:57.727Z,98443.38
2023-01-27T01:45:33.968Z,98445.63
2023-01-27T01:48:08.589Z,98438.63
2023-01-27T01:50:35.250Z,98446.59
2023-01-27T01:53:01.962Z,98436.88
2023-01-27T01:55:28.642Z,98434.91
2023-01-27T01:57:55.281Z,98432.72
2023-01-27T02:00:22.007Z,98429.91
2023-01-27T02:02:48.746Z,98435.53
2023-01-27T02:05:22.262Z,98447.03
2023-01-27T02:07:54.002Z,98439.91
2023-01-27T02:10:23.763Z,98447.78
2023-01-27T02:12:50.359Z,98434.91
2023-01-27T02:15:17.000Z,98428.75
2023-01-27T02:17:45.209Z,98431.50
2023-01-27T02:20:39.747Z,98430.81
2023-01-27T02:23:40.222Z,98433.69
2023-01-27T02:26:13.603Z,98442.03
2023-01-27T02:28:40.247Z,98440.66
2023-01-27T02:31:07.051Z,98438.09
2023-01-27T02:33:33.966Z,98462.53
2023-01-27T02:36:01.988Z,98460.91
2023-01-27T02:38:33.501Z,98450.97
2023-01-27T02:41:04.994Z,98445.91
2023-01-27T02:43:31.708Z,98453.63
2023-01-27T02:45:58.562Z,98454.03
2023-01-27T02:48:25.292Z,98465.69
2023-01-27T02:50:52.002Z,98452.94
2023-01-27T02:53:19.173Z,98451.00
2023-01-27T02:55:45.814Z,98455.69
2023-01-27T02:58:15.552Z,98469.00
2023-01-27T03:00:47.519Z,98478.06
2023-01-27T03:03:14.205Z,98478.88
2023-01-27T03:05:41.691Z,98489.38
2023-01-27T03:08:08.518Z,98492.22
2023-01-27T03:10:35.514Z,98475.09
2023-01-27T03:13:02.198Z,98478.44
2023-01-27T03:15:47.503Z,98482.22
2023-01-27T03:18:16.278Z,98494.50
2023-01-27T03:20:45.054Z,98491.78
2023-01-27T03:23:13.262Z,98495.44
2023-01-27T03:25:47.850Z,98503.00
2023-01-27T03:28:15.034Z,98509.66
2023-01-27T03:30:48.060Z,98517.69
2023-01-27T03:33:19.547Z,98523.88
2023-01-27T03:36:10.165Z,98516.13
2023-01-27T03:39:01.650Z,98499.44
2023-01-27T03:41:46.797Z,98508.78
2023-01-27T03:44:34.159Z,98513.78
2023-01-27T03:47:00.848Z,98526.66
2023-01-27T03:49:27.530Z,98524.59
2023-01-27T03:51:54.184Z,98545.97
2023-01-27T03:54:20.795Z,98544.72
2023-01-27T03:56:48.077Z,98527.66
2023-01-27T03:59:15.821Z,98527.88
2023-01-27T04:01:43.814Z,98527.25
2023-01-27T04:04:29.565Z,98527.56
2023-01-27T04:07:00.826Z,98528.19
2023-01-27T04:09:29.927Z,98524.47
2023-01-27T04:12:00.567Z,98526.78
2023-01-27T04:14:31.226Z,98532.50
2023-01-27T04:17:05.684Z,98537.84
2023-01-27T04:19:32.457Z,98536.94
2023-01-27T04:21:59.845Z,98526.06
2023-01-27T04:24:26.619Z,98535.34
2023-01-27T04:27:04.274Z,98535.94
2023-01-27T04:29:35.108Z,98533.88
2023-01-27T04:32:03.486Z,98533.91
2023-01-27T04:34:30.361Z,98539.34
2023-01-27T04:36:57.053Z,98528.09
2023-01-27T04:39:23.880Z,98528.16
2023-01-27T04:41:51.638Z,98531.22
2023-01-27T04:44:20.383Z,98527.09
2023-01-27T04:46:47.115Z,98537.88
2023-01-27T04:49:13.744Z,98528.75
2023-01-27T04:51:40.398Z,98530.72
2023-01-27T04:54:07.132Z,98536.94
2023-01-27T04:56:41.346Z,98544.97
2023-01-27T04:59:12.056Z,98535.34
2023-01-27T05:01:38.732Z,98552.81
2023-01-27T05:04:05.412Z,98547.66
2023-01-27T05:06:32.087Z,98562.50
2023-01-27T05:08:58.795Z,98544.81
2023-01-27T05:11:25.503Z,98552.06
2023-01-27T05:13:52.094Z,98548.94
2023-01-27T05:16:23.838Z,98552.53
2023-01-27T05:18:51.659Z,98553.56
2023-01-27T05:21:22.717Z,98564.69
2023-01-27T05:23:49.480Z,98559.97
2023-01-27T05:26:23.763Z,98565.91
2023-01-27T05:28:50.642Z,98568.91
2023-01-27T05:31:25.245Z,98576.44
2023-01-27T05:33:53.573Z,98569.34
2023-01-27T05:36:22.192Z,98573.84
2023-01-27T05:38:48.995Z,98578.75
2023-01-27T05:41:16.002Z,98581.00
2023-01-27T05:43:43.627Z,98574.75
2023-01-27T05:46:17.930Z,98581.28
2023-01-27T05:48:45.928Z,98586.28
2023-01-27T05:51:15.067Z,98584.91
2023-01-27T05:53:42.345Z,98606.75
2023-01-27T05:56:10.560Z,98583.25
2023-01-27T05:58:37.573Z,98597.13
2023-01-27T06:01:08.448Z,98602.44
2023-01-27T06:03:35.197Z,98605.81
2023-01-27T06:06:01.887Z,98601.44
2023-01-27T06:08:28.493Z,98599.97
2023-01-27T06:10:55.155Z,98606.31
2023-01-27T06:13:22.585Z,98604.97
2023-01-27T06:15:52.230Z,98609.66
2023-01-27T06:18:19.259Z,98615.78
2023-01-27T06:20:46.120Z,98616.69
2023-01-27T06:23:13.582Z,98616.03
2023-01-27T06:25:41.856Z,98617.03
2023-01-27T06:28:10.755Z,98620.16
2023-01-27T06:30:39.277Z,98618.63
2023-01-27T06:33:06.237Z,98613.91
2023-01-27T06:35:33.357Z,98620.03
2023-01-27T06:38:00.185Z,98627.25
2023-01-27T06:40:27.589Z,98628.44
2023-01-27T06:42:54.328Z,98616.31
2023-01-27T06:45:21.358Z,98639.16
2023-01-27T06:47:55.470Z,98648.03
2023-01-27T06:50:22.182Z,98662.19
2023-01-27T06:52:48.813Z,98666.56
2023-01-27T06:55:15.511Z,98671.09
2023-01-27T06:57:42.672Z,98665.69
2023-01-27T07:00:09.840Z,98677.97
2023-01-27T07:02:36.500Z,98661.03
2023-01-27T07:05:03.213Z,98673.94
2023-01-27T07:07:29.845Z,98672.53
2023-01-27T07:09:56.481Z,98682.09
2023-01-27T07:12:23.127Z,98671.13
2023-01-27T07:14:49.759Z,98675.34
2023-01-27T07:17:16.389Z,98691.78
2023-01-27T07:19:43.038Z,98699.03
2023-01-27T07:22:09.668Z,98701.56
2023-01-27T07:24:36.366Z,98698.13
2023-01-27T07:27:03.185Z,98699.28
2023-01-27T07:29:29.785Z,98711.56
2023-01-27T07:31:56.443Z,98703.91
2023-01-27T07:34:23.087Z,98704.81
2023-01-27T07:36:49.718Z,98703.75
2023-01-27T07:39:16.367Z,98710.09
2023-01-27T07:41:44.043Z,98702.84
2023-01-27T07:44:14.854Z,98702.22
2023-01-27T07:46:41.533Z,98705.56
2023-01-27T07:49:08.208Z,98713.50
2023-01-27T07:51:34.926Z,98726.19
2023-01-27T07:54:02.222Z,98724.66
2023-01-27T07:56:28.950Z,98726.06
2023-01-27T07:58:55.905Z,98725.56
2023-01-27T08:01:22.668Z,98744.03
2023-01-27T08:03:49.313Z,98744.59
2023-01-27T08:06:15.964Z,98740.94
2023-01-27T08:08:42.662Z,98748.06
2023-01-27T08:11:10.517Z,98747.09
2023-01-27T08:13:37.202Z,98750.19
2023-01-27T08:16:08.878Z,98751.91
2023-01-27T08:18:35.674Z,98773.03
2023-01-27T08:21:03.853Z,98760.38
2023-01-27T08:23:30.521Z,98758.78
2023-01-27T08:25:58.331Z,98752.91
2023-01-27T08:28:26.210Z,98770.25
2023-01-27T08:30:53.568Z,98758.94
2023-01-27T08:33:21.186Z,98781.13
2023-01-27T08:35:47.986Z,98770.53
2023-01-27T08:38:15.271Z,98773.97
2023-01-27T08:40:42.208Z,98801.56
2023-01-27T08:43:08.908Z,98791.75
2023-01-27T08:45:35.651Z,98797.38
2023-01-27T08:48:02.319Z,98799.56
2023-01-27T08:50:30.347Z,98796.31
2023-01-27T08:53:00.755Z,98790.97
2023-01-27T08:55:28.320Z,98799.03
2023-01-27T08:57:55.151Z,98803.06
2023-01-27T09:00:22.332Z,98793.34
2023-01-27T09:02:50.906Z,98803.84
2023-01-27T09:05:17.962Z,98803.00
2023-01-27T09:07:45.609Z,98809.13
2023-01-27T09:10:15.321Z,98798.75
2023-01-27T09:12:42.948Z,98793.34
2023-01-27T09:15:10.084Z,98805.97
2023-01-27T09:17:37.306Z,98807.22
2023-01-27T09:20:04.537Z,98804.19
2023-01-27T09:22:31.338Z,98810.16
2023-01-27T09:25:00.948Z,98799.66
2023-01-27T09:27:41.050Z,98812.38
2023-01-27T09:30:09.710Z,98801.59
2023-01-27T09:32:36.364Z,98800.66
2023-01-27T09:35:02.972Z,98813.78
2023-01-27T09:37:29.605Z,98828.63
2023-01-27T09:39:59.275Z,98830.66
2023-01-27T09:43:02.903Z,98813.31
2023-01-27T09:45:36.436Z,98829.94
2023-01-27T09:48:06.596Z,98821.50
2023-01-27T09:50:44.477Z,98829.66
2023-01-27T09:53:50.241Z,98832.38
2023-01-27T09:56:38.629Z,98840.97
2023-01-27T09:59:20.393Z,98839.56
2023-01-27T10:02:24.669Z,98827.91
2023-01-27T10:05:13.529Z,98828.38
2023-01-27T10:07:49.558Z,98839.44
2023-01-27T10:10:37.349Z,98849.41
2023-01-27T10:13:16.555Z,98836.94
2023-01-27T10:15:49.575Z,98829.13
2023-01-27T10:18:34.681Z,98834.34
2023-01-27T10:21:13.454Z,98840.69
2023-01-27T10:23:58.307Z,98832.31
2023-01-27T10:26:32.072Z,98840.81
2023-01-27T10:29:10.182Z,98839.31
2023-01-27T10:31:38.393Z,98853.13
2023-01-27T10:34:22.573Z,98851.59
2023-01-27T10:37:20.493Z,98833.63
2023-01-27T10:40:08.114Z,98839.31
2023-01-27T10:42:37.550Z,98840.69
2023-01-27T10:45:14.181Z,98859.81
2023-01-27T10:48:02.033Z,98874.41
2023-01-27T10:50:31.053Z,98877.38
2023-01-27T10:53:23.900Z,98853.97
2023-01-27T10:56:03.192Z,98850.06
2023-01-27T10:58:33.817Z,98869.38
2023-01-27T11:04:02.711Z,98847.09
2023-01-27T11:06:36.817Z,98846.56
2023-01-27T11:09:08.103Z,98865.78
2023-01-27T11:11:47.308Z,98859.53
2023-01-27T11:14:28.894Z,98857.72
2023-01-27T11:17:12.757Z,98851.19
2023-01-27T11:19:57.736Z,98842.78
2023-01-27T11:22:31.117Z,98860.50
2023-01-27T11:25:02.632Z,98866.56
2023-01-27T11:27:41.425Z,98854.84
2023-01-27T11:30:17.322Z,98850.53
2023-01-27T11:33:01.193Z,98852.53
2023-01-27T11:35:28.077Z,98846.78
2023-01-27T11:38:00.700Z,98838.75
2023-01-27T11:40:34.655Z,98839.75
2023-01-27T11:43:01.850Z,98850.75
2023-01-27T11:45:30.632Z,98849.50
2023-01-27T11:47:58.719Z,98843.63
2023-01-27T11:50:30.753Z,98840.84
2023-01-27T11:53:04.421Z,98835.19
2023-01-27T11:55:37.516Z,98827.88
2023-01-27T11:58:22.755Z,98826.28
2023-01-27T12:00:58.479Z,98829.31
2023-01-27T12:03:46.412Z,98834.53
2023-01-27T12:06:17.866Z,98827.78
2023-01-27T12:08:46.040Z,98819.34
2023-01-27T12:11:24.510Z,98810.78
2023-01-27T12:14:00.454Z,98811.81
2023-01-27T12:16:45.636Z,98805.69
2023-01-27T12:19:34.882Z,98792.91
2023-01-27T12:22:06.982Z,98790.13
2023-01-27T12:24:35.229Z,98787.13
2023-01-27T12:27:02.936Z,98781.97
2023-01-27T12:29:44.497Z,98774.91
2023-01-27T12:32:20.577Z,98784.97
2023-01-27T12:34:49.598Z,98781.84
2023-01-27T12:37:22.311Z,98779.22
2023-01-27T12:40:08.041Z,98782.72
2023-01-27T12:42:38.766Z,98788.19
2023-01-27T12:45:25.809Z,98772.59
2023-01-27T12:48:10.025Z,98770.34
2023-01-27T12:50:38.114Z,98771.03
2023-01-27T12:53:05.960Z,98778.66
2023-01-27T12:55:39.247Z,98774.53
2023-01-27T12:58:05.920Z,98778.88
2023-01-27T13:00:32.647Z,98769.66
2023-01-27T13:03:10.593Z,98775.91
2023-01-27T13:05:42.120Z,98793.72
2023-01-27T13:08:17.953Z,98781.97
2023-01-27T13:10:56.053Z,98774.22
2023-01-27T13:13:27.205Z,98780.47
2023-01-27T13:16:17.917Z,98777.66
2023-01-27T13:18:55.784Z,98788.63
2023-01-27T13:21:25.255Z,98802.03
2023-01-27T13:23:51.963Z,98801.88
2023-01-27T13:26:24.980Z,98788.84
2023-01-27T13:29:01.428Z,98799.97
2023-01-27T13:31:49.806Z,98814.06
2023-01-27T13:34:36.561Z,98803.56
2023-01-27T13:37:24.725Z,98810.44
2023-01-27T13:40:14.852Z,98795.53
2023-01-27T13:43:01.543Z,98788.44
2023-01-27T13:45:38.487Z,98783.66
2023-01-27T13:48:14.836Z,98774.53
2023-01-27T13:51:16.896Z,98771.81
2023-01-27T13:53:43.829Z,98778.34
2023-01-27T13:56:19.694Z,98795.09
2023-01-27T13:58:52.394Z,98767.34
2023-01-27T14:01:25.313Z,98783.94
2023-01-27T14:04:12.978Z,98792.13
2023-01-27T14:07:09.468Z,98772.66
2023-01-27T14:09:46.516Z,98769.16
2023-01-27T14:12:31.243Z,98778.03
2023-01-27T14:15:20.934Z,98785.56
2023-01-27T14:18:10.962Z,98783.31
2023-01-27T14:20:50.607Z,98787.59
2023-01-27T14:23:32.373Z,98794.63
2023-01-27T14:26:12.026Z,98793.72
2023-01-27T14:29:05.201Z,98794.59
2023-01-27T14:31:46.127Z,98801.47
2023-01-27T14:34:21.790Z,98805.25
2023-01-27T14:37:18.288Z,98812.03
2023-01-27T14:40:14.433Z,98796.44
2023-01-27T14:42:46.090Z,98820.72
2023-01-27T14:45:31.370Z,98821.22
2023-01-27T14:48:21.014Z,98813.25
2023-01-27T14:51:05.523Z,98809.38
2023-01-27T14:53:51.007Z,98819.78
2023-01-27T14:56:44.537Z,98818.09
2023-01-27T14:59:20.212Z,98814.75
2023-01-27T15:01:55.486Z,98816.50
2023-01-27T15:04:48.544Z,98841.00
2023-01-27T15:07:43.344Z,98826.84
2023-01-27T15:10:23.185Z,98825.94
2023-01-27T15:13:09.620Z,98830.50
2023-01-27T15:15:48.015Z,98811.06
2023-01-27T15:18:26.377Z,98816.28
2023-01-27T15:21:29.765Z,98821.66
2023-01-27T15:24:15.737Z,98829.56
2023-01-27T15:26:42.362Z,98828.50
2023-01-27T15:29:13.147Z,98825.53
2023-01-27T15:31:39.869Z,98834.97
2023-01-27T15:34:16.139Z,98842.53
2023-01-27T15:37:00.151Z,98853.63
2023-01-27T15:39:40.435Z,98857.56
2023-01-27T15:42:10.673Z,98855.50
2023-01-27T15:44:41.218Z,98851.66
2023-01-27T15:47:23.594Z,98860.78
2023-01-27T15:49:52.185Z,98858.31
2023-01-27T15:56:56.384Z,98842.97
2023-01-27T15:59:29.701Z,98848.72
2023-01-27T16:02:05.284Z,98856.78
2023-01-27T16:04:33.150Z,98860.91
2023-01-27T16:07:04.222Z,98860.63
2023-01-27T16:09:41.792Z,98852.16
2023-01-27T16:12:23.530Z,98850.75
2023-01-27T16:15:10.410Z,98856.19
2023-01-27T16:18:07.720Z,98852.84
2023-01-27T16:20:44.007Z,98865.78
2023-01-27T16:23:16.897Z,98864.59
2023-01-27T16:25:48.909Z,98864.88
2023-01-27T16:28:21.485Z,98877.75
2023-01-27T16:31:06.509Z,98888.25
2023-01-27T16:33:43.835Z,98880.78
2023-01-27T16:36:20.879Z,98907.53
2023-01-27T16:38:47.493Z,98904.41
2023-01-27T16:41:21.926Z,98896.13
2023-01-27T16:43:58.137Z,98885.91
2023-01-27T16:46:42.170Z,98886.78
2023-01-27T16:49:22.031Z,98877.03
2023-01-27T16:51:56.190Z,98878.59
2023-01-27T16:54:31.259Z,98876.94
2023-01-27T16:56:57.894Z,98889.47
2023-01-27T16:59:26.788Z,98888.63
2023-01-27T17:02:24.084Z,98906.59
2023-01-27T17:04:51.665Z,98896.06
2023-01-27T17:07:18.540Z,98905.03
2023-01-27T17:09:58.885Z,98899.50
2023-01-27T17:12:26.347Z,98904.19
2023-01-27T17:14:53.791Z,98878.38
2023-01-27T17:17:21.109Z,98864.88
2023-01-27T17:19:48.453Z,98866.84
2023-01-27T17:22:25.909Z,98853.13
2023-01-27T17:24:56.625Z,98841.19
2023-01-27T17:27:25.012Z,98845.22
2023-01-27T17:29:54.802Z,98843.72
2023-01-27T17:32:26.247Z,98835.66
2023-01-27T17:34:54.983Z,98826.31
2023-01-27T17:37:22.408Z,98836.41
2023-01-27T17:39:52.981Z,98842.31
2023-01-27T17:42:19.904Z,98836.81
2023-01-27T17:44:46.896Z,98823.03
2023-01-27T17:47:18.115Z,98827.22
2023-01-27T17:49:45.646Z,98843.19
2023-01-27T17:52:17.696Z,98825.16
2023-01-27T17:54:46.775Z,98829.50
2023-01-27T17:57:21.565Z,98825.63
2023-01-27T18:00:09.792Z,98834.28
2023-01-27T18:02:47.677Z,98832.63
2023-01-27T18:05:17.406Z,98837.50
2023-01-27T18:07:43.979Z,98831.72
2023-01-27T18:10:34.815Z,98830.13
2023-01-27T18:13:34.022Z,98825.03
2023-01-27T18:16:02.048Z,98832.34
2023-01-27T18:18:33.038Z,98844.81
2023-01-27T18:20:59.553Z,98839.19
2023-01-27T18:23:30.554Z,98845.72
2023-01-27T18:26:06.727Z,98847.28
2023-01-27T18:28:35.854Z,98852.41
2023-01-27T18:31:02.617Z,98853.63
2023-01-27T18:33:29.299Z,98848.59
2023-01-27T18:35:57.218Z,98860.16
2023-01-27T18:38:32.947Z,98866.09
2023-01-27T18:41:18.776Z,98866.19
2023-01-27T18:43:47.789Z,98870.44
2023-01-27T18:46:14.407Z,98871.13
2023-01-27T18:48:41.035Z,98877.28
2023-01-27T18:51:14.400Z,98880.56
2023-01-27T18:53:41.155Z,98878.34
2023-01-27T18:56:08.155Z,98880.09
2023-01-27T18:58:35.608Z,98887.41
2023-01-27T19:01:02.363Z,98888.31
2023-01-27T19:03:30.596Z,98903.50
2023-01-27T19:05:57.271Z,98913.56
2023-01-27T19:08:24.631Z,98918.59
2023-01-27T19:10:51.489Z,98930.78
2023-01-27T19:13:18.227Z,98926.41
2023-01-27T19:15:50.138Z,98927.44
2023-01-27T19:18:33.540Z,98923.22
2023-01-27T19:21:00.778Z,98940.38
2023-01-27T19:23:27.545Z,98936.16
2023-01-27T19:25:55.160Z,98941.41
2023-01-27T19:28:29.058Z,98940.50
2023-01-27T19:30:55.765Z,98936.09
2023-01-27T19:33:23.594Z,98937.91
2023-01-27T19:35:53.854Z,98931.06
2023-01-27T19:38:20.503Z,98932.97
2023-01-27T19:40:47.239Z,98936.41
2023-01-27T19:43:14.019Z,98940.81
2023-01-27T19:45:41.498Z,98943.25
2023-01-27T19:48:21.725Z,98938.06
2023-01-27T19:50:48.731Z,98940.06
2023-01-27T19:53:16.012Z,98951.38
2023-01-27T19:55:42.913Z,98947.19
2023-01-27T19:58:25.998Z,98948.88
2023-01-27T20:00:53.177Z,98954.34
2023-01-27T20:03:19.865Z,98949.19
2023-01-27T20:05:46.510Z,98948.31
2023-01-27T20:08:15.472Z,98945.81
2023-01-27T20:10:42.180Z,98940.78
2023-01-27T20:13:16.240Z,98942.47
2023-01-27T20:15:42.876Z,98938.16
2023-01-27T20:18:11.247Z,98937.28
2023-01-27T20:20:37.960Z,98944.22
2023-01-27T20:23:04.630Z,98944.28
2023-01-27T20:25:31.248Z,98933.25
2023-01-27T20:27:59.302Z,98947.78
2023-01-27T20:30:32.323Z,98951.22
2023-01-27T20:32:59.750Z,98952.97
2023-01-27T20:35:26.567Z,98951.13
2023-01-27T20:42:05.060Z,98950.22
2023-01-27T20:44:31.657Z,98952.69
2023-01-27T20:46:58.309Z,98954.03
2023-01-27T20:49:25.005Z,98958.69
2023-01-27T20:51:52.349Z,98971.31
2023-01-27T20:54:19.009Z,98974.13
2023-01-27T20:56:45.663Z,98974.13
2023-01-27T20:59:12.411Z,98972.38
2023-01-27T21:01:39.134Z,98971.00
2023-01-27T21:04:05.750Z,98978.38
2023-01-27T21:06:32.460Z,98967.19
2023-01-27T21:08:59.144Z,98976.63
2023-01-27T21:11:25.885Z,98980.97
2023-01-27T21:13:52.827Z,98973.22
2023-01-27T21:16:19.592Z,98981.88
2023-01-27T21:18:46.391Z,98975.03
2023-01-27T21:21:24.225Z,98984.25
2023-01-27T21:23:50.970Z,98985.84
2023-01-27T21:26:17.690Z,98987.28
2023-01-27T21:28:44.373Z,98994.66
2023-01-27T21:31:13.598Z,98984.47
2023-01-27T21:33:40.386Z,98984.47
2023-01-27T21:36:10.291Z,98994.66
2023-01-27T21:38:37.268Z,98989.00
2023-01-27T21:41:06.885Z,98981.34
2023-01-27T21:43:52.232Z,98979.53
2023-01-27T21:46:18.976Z,98981.41
2023-01-27T21:48:45.597Z,98975.31
2023-01-27T21:51:12.268Z,98973.66
2023-01-27T21:54:30.954Z,98971.97
2023-01-27T21:57:38.140Z,98972.69
2023-01-27T22:00:06.370Z,98965.97
2023-01-27T22:02:38.551Z,98971.97
2023-01-27T22:05:05.541Z,98964.44
2023-01-27T22:07:38.062Z,98958.28
2023-01-27T22:10:15.168Z,98959.28
2023-01-27T22:12:41.829Z,98958.41
2023-01-27T22:15:10.003Z,98964.22
2023-01-27T22:17:37.817Z,98956.63
2023-01-27T22:20:05.021Z,98954.78
2023-01-27T22:22:31.694Z,98963.47
2023-01-27T22:24:58.328Z,98966.88
2023-01-27T22:27:24.959Z,98968.63
2023-01-27T22:29:51.550Z,98965.84
2023-01-27T22:32:18.213Z,98969.34
2023-01-27T22:34:44.848Z,98968.47
2023-01-27T22:37:11.472Z,98971.13
2023-01-27T22:39:38.265Z,98966.06
2023-01-27T22:42:04.957Z,98969.25
2023-01-27T22:44:31.621Z,98973.50
2023-01-27T22:46:58.281Z,98970.44
2023-01-27T22:49:24.901Z,98979.91
2023-01-27T22:51:51.540Z,98980.66
2023-01-27T22:54:18.139Z,98975.59
2023-01-27T22:56:44.763Z,98972.25
2023-01-27T22:59:13.107Z,98972.25
2023-01-27T23:01:40.157Z,98973.13
2023-01-27T23:04:06.792Z,98970.44
2023-01-27T23:06:33.429Z,98973.19
2023-01-27T23:09:00.026Z,98970.59
2023-01-27T23:11:26.751Z,98967.09
2023-01-27T23:13:54.033Z,98957.50
2023-01-27T23:16:20.704Z,98967.63
2023-01-27T23:18:47.334Z,98969.03
2023-01-27T23:21:13.963Z,98971.13
2023-01-27T23:23:40.634Z,98965.97
2023-01-27T23:26:08.222Z,98965.13
2023-01-27T23:28:35.409Z,98971.81
2023-01-27T23:31:02.139Z,98967.56
2023-01-27T23:33:33.726Z,98978.66
2023-01-27T23:36:00.403Z,98983.84
2023-01-27T23:38:33.122Z,98989.78
2023-01-27T23:41:04.618Z,98983.84
2023-01-27T23:43:31.238Z,98985.63
2023-01-27T23:45:57.908Z,98995.84
2023-01-27T23:48:24.687Z,98990.78
2023-01-27T23:50:51.542Z,99001.19
2023-01-27T23:53:18.150Z,98994.19
2023-01-27T23:55:44.849Z,99004.69
2023-01-27T23:58:11.454Z,98999.50
